sensor_id;sensor_type;location;lat;lon;timestamp;pressure;altitude;pressure_sealevel;temperature;humidity
67740;BME280;54536;50.090;14.420;2022-10-16T00:01:38;99382.50;;;17.86;69.81
67740;BME280;54536;50.090;14.420;2022-10-16T00:04:13;99376.75;;;17.74;70.40
67740;BME280;54536;50.090;14.420;2022-10-16T00:06:39;99368.78;;;17.74;70.22
67740;BME280;54536;50.090;14.420;2022-10-16T00:09:07;99367.91;;;17.82;70.01
67740;BME280;54536;50.090;14.420;2022-10-16T00:11:35;99367.75;;;17.75;70.28
67740;BME280;54536;50.090;14.420;2022-10-16T00:14:08;99363.66;;;17.73;70.30
67740;BME280;54536;50.090;14.420;2022-10-16T00:16:37;99369.97;;;17.72;70.29
67740;BME280;54536;50.090;14.420;2022-10-16T00:19:04;99369.50;;;17.68;70.73
67740;BME280;54536;50.090;14.420;2022-10-16T00:21:31;99377.03;;;17.65;70.88
67740;BME280;54536;50.090;14.420;2022-10-16T00:24:00;99382.63;;;17.70;71.28
67740;BME280;54536;50.090;14.420;2022-10-16T00:26:29;99376.41;;;17.63;70.88
67740;BME280;54536;50.090;14.420;2022-10-16T00:28:55;99379.78;;;17.71;70.60
67740;BME280;54536;50.090;14.420;2022-10-16T00:31:22;99378.78;;;17.72;70.51
67740;BME280;54536;50.090;14.420;2022-10-16T00:33:49;99375.28;;;17.72;70.55
67740;BME280;54536;50.090;14.420;2022-10-16T00:36:20;99382.81;;;17.68;71.20
67740;BME280;54536;50.090;14.420;2022-10-16T00:38:50;99385.81;;;17.65;70.88
67740;BME280;54536;50.090;14.420;2022-10-16T00:41:22;99390.97;;;17.67;71.09
67740;BME280;54536;50.090;14.420;2022-10-16T00:44:00;99395.75;;;17.71;70.63
67740;BME280;54536;50.090;14.420;2022-10-16T00:46:32;99403.72;;;17.71;70.43
67740;BME280;54536;50.090;14.420;2022-10-16T00:49:02;99398.13;;;17.66;70.44
67740;BME280;54536;50.090;14.420;2022-10-16T00:51:33;99398.94;;;17.67;70.86
67740;BME280;54536;50.090;14.420;2022-10-16T00:54:03;99392.34;;;17.63;70.74
67740;BME280;54536;50.090;14.420;2022-10-16T00:56:29;99392.44;;;17.69;70.73
67740;BME280;54536;50.090;14.420;2022-10-16T00:58:55;99391.34;;;17.64;70.65
67740;BME280;54536;50.090;14.420;2022-10-16T01:01:22;99386.69;;;17.66;70.84
67740;BME280;54536;50.090;14.420;2022-10-16T01:03:47;99401.63;;;17.67;70.60
67740;BME280;54536;50.090;14.420;2022-10-16T01:06:46;99392.09;;;17.72;70.44
67740;BME280;54536;50.090;14.420;2022-10-16T01:14:47;99393.19;;;17.78;70.00
67740;BME280;54536;50.090;14.420;2022-10-16T01:17:31;99390.38;;;17.80;70.26
67740;BME280;54536;50.090;14.420;2022-10-16T01:20:12;99397.22;;;17.74;70.04
67740;BME280;54536;50.090;14.420;2022-10-16T01:23:09;99392.81;;;17.66;70.61
67740;BME280;54536;50.090;14.420;2022-10-16T01:25:49;99398.72;;;17.76;69.61
67740;BME280;54536;50.090;14.420;2022-10-16T01:28:25;99400.53;;;17.76;69.82
67740;BME280;54536;50.090;14.420;2022-10-16T01:30:58;99402.53;;;17.74;70.05
67740;BME280;54536;50.090;14.420;2022-10-16T01:33:47;99403.69;;;17.80;69.57
67740;BME280;54536;50.090;14.420;2022-10-16T01:36:50;99397.34;;;17.81;69.26
67740;BME280;54536;50.090;14.420;2022-10-16T01:39:20;99390.84;;;17.83;69.73
67740;BME280;54536;50.090;14.420;2022-10-16T01:44:34;99394.03;;;17.78;69.93
67740;BME280;54536;50.090;14.420;2022-10-16T01:47:04;99401.88;;;17.72;70.00
67740;BME280;54536;50.090;14.420;2022-10-16T01:49:35;99396.31;;;17.82;69.39
67740;BME280;54536;50.090;14.420;2022-10-16T01:52:07;99390.47;;;17.86;69.35
67740;BME280;54536;50.090;14.420;2022-10-16T01:54:37;99397.53;;;17.79;69.98
67740;BME280;54536;50.090;14.420;2022-10-16T01:57:07;99397.56;;;17.71;69.79
67740;BME280;54536;50.090;14.420;2022-10-16T01:59:40;99407.66;;;17.61;70.62
67740;BME280;54536;50.090;14.420;2022-10-16T02:02:11;99407.19;;;17.57;70.60
67740;BME280;54536;50.090;14.420;2022-10-16T02:04:53;99406.84;;;17.60;70.62
67740;BME280;54536;50.090;14.420;2022-10-16T02:07:20;99408.13;;;17.64;70.20
67740;BME280;54536;50.090;14.420;2022-10-16T02:09:46;99404.53;;;17.72;69.90
67740;BME280;54536;50.090;14.420;2022-10-16T02:12:28;99402.25;;;17.69;69.76
67740;BME280;54536;50.090;14.420;2022-10-16T02:14:56;99403.09;;;17.69;70.29
67740;BME280;54536;50.090;14.420;2022-10-16T02:17:23;99401.72;;;17.73;69.95
67740;BME280;54536;50.090;14.420;2022-10-16T02:19:59;99392.97;;;17.65;70.59
67740;BME280;54536;50.090;14.420;2022-10-16T02:22:48;99384.84;;;17.66;70.03
67740;BME280;54536;50.090;14.420;2022-10-16T02:25:35;99392.44;;;17.69;70.14
67740;BME280;54536;50.090;14.420;2022-10-16T02:30:48;99385.09;;;17.71;69.97
67740;BME280;54536;50.090;14.420;2022-10-16T02:33:20;99388.38;;;17.59;70.75
67740;BME280;54536;50.090;14.420;2022-10-16T02:35:50;99397.38;;;17.58;70.30
67740;BME280;54536;50.090;14.420;2022-10-16T02:38:18;99400.50;;;17.61;70.54
67740;BME280;54536;50.090;14.420;2022-10-16T02:40:46;99399.47;;;17.62;70.15
67740;BME280;54536;50.090;14.420;2022-10-16T02:43:13;99391.78;;;17.67;70.25
67740;BME280;54536;50.090;14.420;2022-10-16T02:45:39;99394.53;;;17.59;70.42
67740;BME280;54536;50.090;14.420;2022-10-16T02:48:06;99403.63;;;17.65;69.97
67740;BME280;54536;50.090;14.420;2022-10-16T02:50:32;99408.38;;;17.54;70.40
67740;BME280;54536;50.090;14.420;2022-10-16T02:52:58;99407.91;;;17.51;70.43
67740;BME280;54536;50.090;14.420;2022-10-16T02:55:24;99404.94;;;17.46;70.59
67740;BME280;54536;50.090;14.420;2022-10-16T02:57:56;99409.91;;;17.49;70.51
67740;BME280;54536;50.090;14.420;2022-10-16T03:00:22;99410.56;;;17.51;70.50
67740;BME280;54536;50.090;14.420;2022-10-16T03:02:49;99420.28;;;17.44;70.91
67740;BME280;54536;50.090;14.420;2022-10-16T03:05:16;99424.78;;;17.43;70.62
67740;BME280;54536;50.090;14.420;2022-10-16T03:07:42;99429.53;;;17.48;70.61
67740;BME280;54536;50.090;14.420;2022-10-16T03:10:08;99437.06;;;17.44;70.34
67740;BME280;54536;50.090;14.420;2022-10-16T03:12:41;99439.06;;;17.42;70.37
67740;BME280;54536;50.090;14.420;2022-10-16T03:15:09;99444.47;;;17.49;70.39
67740;BME280;54536;50.090;14.420;2022-10-16T03:17:35;99439.81;;;17.51;70.30
67740;BME280;54536;50.090;14.420;2022-10-16T03:20:01;99436.84;;;17.46;70.28
67740;BME280;54536;50.090;14.420;2022-10-16T03:22:27;99442.41;;;17.36;70.61
67740;BME280;54536;50.090;14.420;2022-10-16T03:24:54;99444.25;;;17.36;70.38
67740;BME280;54536;50.090;14.420;2022-10-16T03:27:20;99444.09;;;17.37;70.60
67740;BME280;54536;50.090;14.420;2022-10-16T03:29:46;99445.50;;;17.48;70.37
67740;BME280;54536;50.090;14.420;2022-10-16T03:32:12;99441.72;;;17.42;70.59
67740;BME280;54536;50.090;14.420;2022-10-16T03:34:38;99447.38;;;17.39;70.74
67740;BME280;54536;50.090;14.420;2022-10-16T03:37:04;99454.00;;;17.43;70.26
67740;BME280;54536;50.090;14.420;2022-10-16T03:39:30;99453.81;;;17.45;70.33
67740;BME280;54536;50.090;14.420;2022-10-16T03:41:56;99451.97;;;17.45;70.92
67740;BME280;54536;50.090;14.420;2022-10-16T03:44:22;99456.88;;;17.57;70.51
67740;BME280;54536;50.090;14.420;2022-10-16T03:46:49;99452.44;;;17.49;70.75
67740;BME280;54536;50.090;14.420;2022-10-16T03:49:15;99456.88;;;17.57;70.69
67740;BME280;54536;50.090;14.420;2022-10-16T03:51:41;99448.63;;;17.51;70.96
67740;BME280;54536;50.090;14.420;2022-10-16T03:54:07;99456.34;;;17.61;70.68
67740;BME280;54536;50.090;14.420;2022-10-16T03:56:33;99452.28;;;17.50;70.59
67740;BME280;54536;50.090;14.420;2022-10-16T03:58:59;99444.31;;;17.50;70.68
67740;BME280;54536;50.090;14.420;2022-10-16T04:01:25;99441.41;;;17.60;70.53
67740;BME280;54536;50.090;14.420;2022-10-16T04:03:51;99440.28;;;17.54;70.98
67740;BME280;54536;50.090;14.420;2022-10-16T04:06:18;99448.91;;;17.57;70.25
67740;BME280;54536;50.090;14.420;2022-10-16T04:08:44;99458.78;;;17.48;70.90
67740;BME280;54536;50.090;14.420;2022-10-16T04:11:10;99465.75;;;17.49;70.89
67740;BME280;54536;50.090;14.420;2022-10-16T04:13:39;99471.06;;;17.49;71.25
67740;BME280;54536;50.090;14.420;2022-10-16T04:16:06;99481.69;;;17.49;71.38
67740;BME280;54536;50.090;14.420;2022-10-16T04:18:32;99490.38;;;17.43;71.47
67740;BME280;54536;50.090;14.420;2022-10-16T04:21:06;99492.41;;;17.41;71.97
67740;BME280;54536;50.090;14.420;2022-10-16T04:23:33;99493.78;;;17.37;71.54
67740;BME280;54536;50.090;14.420;2022-10-16T04:26:00;99493.78;;;17.37;71.69
67740;BME280;54536;50.090;14.420;2022-10-16T04:28:27;99495.00;;;17.49;71.61
67740;BME280;54536;50.090;14.420;2022-10-16T04:30:54;99495.88;;;17.41;71.86
67740;BME280;54536;50.090;14.420;2022-10-16T04:33:21;99500.91;;;17.36;71.57
67740;BME280;54536;50.090;14.420;2022-10-16T04:35:57;99499.59;;;17.32;71.52
67740;BME280;54536;50.090;14.420;2022-10-16T04:38:24;99499.22;;;17.43;71.17
67740;BME280;54536;50.090;14.420;2022-10-16T04:40:50;99490.09;;;17.38;72.02
67740;BME280;54536;50.090;14.420;2022-10-16T04:43:16;99496.25;;;17.38;71.83
67740;BME280;54536;50.090;14.420;2022-10-16T04:45:42;99502.38;;;17.39;71.98
67740;BME280;54536;50.090;14.420;2022-10-16T04:48:07;99499.22;;;17.43;71.80
67740;BME280;54536;50.090;14.420;2022-10-16T04:50:33;99500.16;;;17.50;71.65
67740;BME280;54536;50.090;14.420;2022-10-16T04:52:59;99499.84;;;17.45;71.59
67740;BME280;54536;50.090;14.420;2022-10-16T04:55:25;99507.09;;;17.51;71.10
67740;BME280;54536;50.090;14.420;2022-10-16T04:57:51;99503.53;;;17.59;71.33
67740;BME280;54536;50.090;14.420;2022-10-16T05:00:17;99512.72;;;17.57;71.52
67740;BME280;54536;50.090;14.420;2022-10-16T05:02:43;99502.34;;;17.47;71.64
67740;BME280;54536;50.090;14.420;2022-10-16T05:05:09;99498.66;;;17.48;71.20
67740;BME280;54536;50.090;14.420;2022-10-16T05:07:35;99504.44;;;17.51;71.34
67740;BME280;54536;50.090;14.420;2022-10-16T05:10:01;99500.03;;;17.44;71.93
67740;BME280;54536;50.090;14.420;2022-10-16T05:12:26;99495.66;;;17.51;71.71
67740;BME280;54536;50.090;14.420;2022-10-16T05:14:52;99495.88;;;17.41;71.53
67740;BME280;54536;50.090;14.420;2022-10-16T05:17:18;99489.66;;;17.49;71.54
67740;BME280;54536;50.090;14.420;2022-10-16T05:19:44;99497.84;;;17.47;71.58
67740;BME280;54536;50.090;14.420;2022-10-16T05:22:10;99494.16;;;17.48;71.62
67740;BME280;54536;50.090;14.420;2022-10-16T05:24:36;99502.69;;;17.44;71.48
67740;BME280;54536;50.090;14.420;2022-10-16T05:27:01;99505.63;;;17.49;71.63
67740;BME280;54536;50.090;14.420;2022-10-16T05:29:27;99508.41;;;17.55;71.06
67740;BME280;54536;50.090;14.420;2022-10-16T05:31:53;99513.59;;;17.49;71.65
67740;BME280;54536;50.090;14.420;2022-10-16T05:34:20;99516.03;;;17.59;71.28
67740;BME280;54536;50.090;14.420;2022-10-16T05:36:46;99524.69;;;17.52;71.49
67740;BME280;54536;50.090;14.420;2022-10-16T05:39:14;99520.03;;;17.54;71.63
67740;BME280;54536;50.090;14.420;2022-10-16T05:41:40;99542.34;;;17.53;71.41
67740;BME280;54536;50.090;14.420;2022-10-16T05:44:06;99546.16;;;17.51;71.17
67740;BME280;54536;50.090;14.420;2022-10-16T05:46:32;99538.53;;;17.48;71.74
67740;BME280;54536;50.090;14.420;2022-10-16T05:48:58;99530.25;;;17.43;71.65
67740;BME280;54536;50.090;14.420;2022-10-16T05:51:24;99527.56;;;17.51;71.27
67740;BME280;54536;50.090;14.420;2022-10-16T05:53:52;99535.22;;;17.46;72.04
67740;BME280;54536;50.090;14.420;2022-10-16T05:56:18;99533.69;;;17.51;71.50
67740;BME280;54536;50.090;14.420;2022-10-16T05:58:44;99529.19;;;17.52;71.01
67740;BME280;54536;50.090;14.420;2022-10-16T06:01:15;99533.56;;;17.45;71.42
67740;BME280;54536;50.090;14.420;2022-10-16T06:03:41;99537.53;;;17.49;71.09
67740;BME280;54536;50.090;14.420;2022-10-16T06:06:15;99544.88;;;17.47;71.57
67740;BME280;54536;50.090;14.420;2022-10-16T06:08:43;99548.03;;;17.42;71.61
67740;BME280;54536;50.090;14.420;2022-10-16T06:11:12;99553.19;;;17.44;71.60
67740;BME280;54536;50.090;14.420;2022-10-16T06:13:38;99555.97;;;17.50;71.19
67740;BME280;54536;50.090;14.420;2022-10-16T06:16:07;99562.44;;;17.56;71.21
67740;BME280;54536;50.090;14.420;2022-10-16T06:18:33;99559.66;;;17.49;72.03
67740;BME280;54536;50.090;14.420;2022-10-16T06:20:59;99560.59;;;17.57;70.79
67740;BME280;54536;50.090;14.420;2022-10-16T06:23:25;99564.97;;;17.49;71.79
67740;BME280;54536;50.090;14.420;2022-10-16T06:25:53;99568.25;;;17.51;70.97
67740;BME280;54536;50.090;14.420;2022-10-16T06:28:19;99574.34;;;17.60;71.18
67740;BME280;54536;50.090;14.420;2022-10-16T06:30:45;99577.75;;;17.46;71.43
67740;BME280;54536;50.090;14.420;2022-10-16T06:33:11;99585.69;;;17.54;71.47
67740;BME280;54536;50.090;14.420;2022-10-16T06:35:37;99583.31;;;17.59;71.02
67740;BME280;54536;50.090;14.420;2022-10-16T06:38:03;99590.13;;;17.62;71.38
67740;BME280;54536;50.090;14.420;2022-10-16T06:40:29;99598.28;;;17.60;70.78
67740;BME280;54536;50.090;14.420;2022-10-16T06:42:55;99603.41;;;17.62;70.69
67740;BME280;54536;50.090;14.420;2022-10-16T06:45:21;99610.41;;;17.63;70.87
67740;BME280;54536;50.090;14.420;2022-10-16T06:47:47;99607.88;;;17.69;70.49
67740;BME280;54536;50.090;14.420;2022-10-16T06:50:13;99608.09;;;17.60;70.83
67740;BME280;54536;50.090;14.420;2022-10-16T06:52:39;99599.13;;;17.61;70.79
67740;BME280;54536;50.090;14.420;2022-10-16T06:55:05;99605.59;;;17.58;71.18
67740;BME280;54536;50.090;14.420;2022-10-16T06:57:31;99613.44;;;17.60;71.07
67740;BME280;54536;50.090;14.420;2022-10-16T06:59:57;99612.53;;;17.67;70.76
67740;BME280;54536;50.090;14.420;2022-10-16T07:02:23;99622.00;;;17.70;70.61
67740;BME280;54536;50.090;14.420;2022-10-16T07:04:48;99614.25;;;17.60;70.65
67740;BME280;54536;50.090;14.420;2022-10-16T07:07:14;99618.19;;;17.64;70.56
67740;BME280;54536;50.090;14.420;2022-10-16T07:09:40;99627.47;;;17.76;70.39
67740;BME280;54536;50.090;14.420;2022-10-16T07:12:06;99631.06;;;17.75;70.66
67740;BME280;54536;50.090;14.420;2022-10-16T07:14:46;99629.78;;;17.80;70.25
67740;BME280;54536;50.090;14.420;2022-10-16T07:17:12;99632.28;;;17.73;70.50
67740;BME280;54536;50.090;14.420;2022-10-16T07:19:38;99636.47;;;17.67;70.55
67740;BME280;54536;50.090;14.420;2022-10-16T07:22:04;99635.09;;;17.80;70.13
67740;BME280;54536;50.090;14.420;2022-10-16T07:24:30;99637.56;;;17.81;70.12
67740;BME280;54536;50.090;14.420;2022-10-16T07:26:56;99646.72;;;17.78;70.06
67740;BME280;54536;50.090;14.420;2022-10-16T07:29:22;99649.69;;;17.84;69.86
67740;BME280;54536;50.090;14.420;2022-10-16T07:31:49;99654.19;;;17.83;70.26
67740;BME280;54536;50.090;14.420;2022-10-16T07:34:17;99654.19;;;17.83;69.55
67740;BME280;54536;50.090;14.420;2022-10-16T07:36:47;99652.59;;;17.97;69.48
67740;BME280;54536;50.090;14.420;2022-10-16T07:39:13;99652.78;;;17.95;69.62
67740;BME280;54536;50.090;14.420;2022-10-16T07:41:39;99655.69;;;17.86;69.74
67740;BME280;54536;50.090;14.420;2022-10-16T07:44:06;99671.44;;;17.87;69.42
67740;BME280;54536;50.090;14.420;2022-10-16T07:46:32;99664.88;;;17.98;69.42
67740;BME280;54536;50.090;14.420;2022-10-16T07:49:00;99667.03;;;18.02;69.63
67740;BME280;54536;50.090;14.420;2022-10-16T07:51:26;99664.63;;;18.08;69.36
67740;BME280;54536;50.090;14.420;2022-10-16T07:53:53;99666.25;;;18.17;68.92
67740;BME280;54536;50.090;14.420;2022-10-16T07:56:20;99659.16;;;18.09;68.82
67740;BME280;54536;50.090;14.420;2022-10-16T07:58:47;99660.13;;;18.08;68.89
67740;BME280;54536;50.090;14.420;2022-10-16T08:01:16;99666.78;;;18.12;68.79
67740;BME280;54536;50.090;14.420;2022-10-16T08:03:49;99666.44;;;18.15;68.70
67740;BME280;54536;50.090;14.420;2022-10-16T08:06:17;99654.31;;;18.13;68.20
67740;BME280;54536;50.090;14.420;2022-10-16T08:08:46;99660.81;;;18.10;68.50
67740;BME280;54536;50.090;14.420;2022-10-16T08:11:13;99667.97;;;18.10;68.48
67740;BME280;54536;50.090;14.420;2022-10-16T08:13:41;99654.78;;;18.16;68.74
67740;BME280;54536;50.090;14.420;2022-10-16T08:16:08;99657.19;;;18.26;67.95
67740;BME280;54536;50.090;14.420;2022-10-16T08:18:36;99664.00;;;18.29;68.39
67740;BME280;54536;50.090;14.420;2022-10-16T08:21:04;99662.25;;;18.36;67.94
67740;BME280;54536;50.090;14.420;2022-10-16T08:23:32;99666.69;;;18.43;67.76
67740;BME280;54536;50.090;14.420;2022-10-16T08:26:04;99672.75;;;18.52;67.69
67740;BME280;54536;50.090;14.420;2022-10-16T08:28:30;99668.25;;;18.53;67.28
67740;BME280;54536;50.090;14.420;2022-10-16T08:30:56;99671.50;;;18.63;67.01
67740;BME280;54536;50.090;14.420;2022-10-16T08:33:29;99673.03;;;18.57;67.47
67740;BME280;54536;50.090;14.420;2022-10-16T08:35:55;99683.97;;;18.62;67.13
67740;BME280;54536;50.090;14.420;2022-10-16T08:38:22;99690.03;;;18.56;67.64
67740;BME280;54536;50.090;14.420;2022-10-16T08:40:48;99683.97;;;18.62;66.83
67740;BME280;54536;50.090;14.420;2022-10-16T08:45:45;99698.13;;;18.63;66.80
67740;BME280;54536;50.090;14.420;2022-10-16T08:48:33;99702.03;;;18.75;66.68
67740;BME280;54536;50.090;14.420;2022-10-16T08:51:04;99719.97;;;18.81;66.69
67740;BME280;54536;50.090;14.420;2022-10-16T08:53:41;99713.91;;;18.87;66.28
67740;BME280;54536;50.090;14.420;2022-10-16T08:56:10;99711.06;;;18.89;66.66
67740;BME280;54536;50.090;14.420;2022-10-16T08:58:36;99705.00;;;18.95;66.01
67740;BME280;54536;50.090;14.420;2022-10-16T09:01:13;99711.72;;;18.91;66.22
67740;BME280;54536;50.090;14.420;2022-10-16T09:17:53;99697.09;;;19.46;64.22
67740;BME280;54536;50.090;14.420;2022-10-16T09:23:44;99699.09;;;19.44;64.09
67740;BME280;54536;50.090;14.420;2022-10-16T09:26:24;99703.31;;;19.53;64.20
67740;BME280;54536;50.090;14.420;2022-10-16T09:28:52;99694.38;;;19.61;64.20
67740;BME280;54536;50.090;14.420;2022-10-16T09:31:38;99699.44;;;19.71;63.82
67740;BME280;54536;50.090;14.420;2022-10-16T09:34:24;99698.31;;;19.80;63.97
67740;BME280;54536;50.090;14.420;2022-10-16T09:36:57;99706.19;;;19.88;63.77
67740;BME280;54536;50.090;14.420;2022-10-16T09:39:25;99711.50;;;20.03;62.93
67740;BME280;54536;50.090;14.420;2022-10-16T09:41:51;99720.09;;;20.20;63.13
67740;BME280;54536;50.090;14.420;2022-10-16T09:44:23;99716.06;;;20.30;62.95
67740;BME280;54536;50.090;14.420;2022-10-16T09:47:03;99708.81;;;20.46;62.62
67740;BME280;54536;50.090;14.420;2022-10-16T09:49:29;99714.78;;;20.69;61.91
67740;BME280;54536;50.090;14.420;2022-10-16T09:52:10;99714.53;;;20.92;61.33
67740;BME280;54536;50.090;14.420;2022-10-16T09:54:37;99723.84;;;20.96;61.20
67740;BME280;54536;50.090;14.420;2022-10-16T09:57:14;99721.25;;;20.81;61.79
67740;BME280;54536;50.090;14.420;2022-10-16T09:59:53;99733.25;;;20.92;61.47
67740;BME280;54536;50.090;14.420;2022-10-16T10:02:35;99734.63;;;21.10;60.74
67740;BME280;54536;50.090;14.420;2022-10-16T10:05:21;99724.78;;;21.17;60.51
67740;BME280;54536;50.090;14.420;2022-10-16T10:08:00;99719.44;;;21.17;60.36
67740;BME280;54536;50.090;14.420;2022-10-16T10:10:41;99721.75;;;21.26;59.87
67740;BME280;54536;50.090;14.420;2022-10-16T10:13:35;99726.09;;;21.34;59.58
67740;BME280;54536;50.090;14.420;2022-10-16T10:16:02;99719.81;;;21.42;59.09
67740;BME280;54536;50.090;14.420;2022-10-16T10:18:28;99722.94;;;21.52;58.92
67740;BME280;54536;50.090;14.420;2022-10-16T10:21:02;99719.47;;;21.58;58.64
67740;BME280;54536;50.090;14.420;2022-10-16T10:23:30;99725.31;;;21.75;58.18
67740;BME280;54536;50.090;14.420;2022-10-16T10:26:22;99725.09;;;21.77;58.03
67740;BME280;54536;50.090;14.420;2022-10-16T10:29:19;99730.03;;;21.80;58.02
67740;BME280;54536;50.090;14.420;2022-10-16T10:34:52;99713.72;;;21.68;58.25
67740;BME280;54536;50.090;14.420;2022-10-16T10:40:22;99721.34;;;21.71;58.54
67740;BME280;54536;50.090;14.420;2022-10-16T10:43:02;99706.38;;;21.83;57.92
67740;BME280;54536;50.090;14.420;2022-10-16T10:45:46;99705.16;;;21.86;57.90
67740;BME280;54536;50.090;14.420;2022-10-16T11:00:04;99702.03;;;21.82;57.85
67740;BME280;54536;50.090;14.420;2022-10-16T11:08:17;99714.44;;;22.03;58.12
67740;BME280;54536;50.090;14.420;2022-10-16T11:10:52;99719.81;;;22.10;56.93
67740;BME280;54536;50.090;14.420;2022-10-16T11:16:15;99721.13;;;22.27;56.66
67740;BME280;54536;50.090;14.420;2022-10-16T11:21:30;99714.53;;;22.36;57.04
67740;BME280;54536;50.090;14.420;2022-10-16T11:24:11;99718.66;;;22.39;56.71
67740;BME280;54536;50.090;14.420;2022-10-16T11:26:43;99721.75;;;22.42;56.96
67740;BME280;54536;50.090;14.420;2022-10-16T11:29:20;99715.97;;;22.65;56.13
67740;BME280;54536;50.090;14.420;2022-10-16T11:32:11;99715.53;;;22.82;55.28
67740;BME280;54536;50.090;14.420;2022-10-16T11:34:51;99708.53;;;22.81;55.62
67740;BME280;54536;50.090;14.420;2022-10-16T11:37:33;99709.78;;;22.78;55.83
67740;BME280;54536;50.090;14.420;2022-10-16T11:40:19;99708.53;;;22.87;55.60
67740;BME280;54536;50.090;14.420;2022-10-16T11:42:57;99713.28;;;22.85;55.27
67740;BME280;54536;50.090;14.420;2022-10-16T11:45:47;99720.50;;;22.78;55.48
67740;BME280;54536;50.090;14.420;2022-10-16T11:51:00;99715.94;;;22.85;53.95
67740;BME280;54536;50.090;14.420;2022-10-16T11:56:21;99712.03;;;22.88;52.18
67740;BME280;54536;50.090;14.420;2022-10-16T11:59:06;99714.94;;;23.00;52.56
67740;BME280;54536;50.090;14.420;2022-10-16T12:08:02;99716.97;;;23.11;52.28
67740;BME280;54536;50.090;14.420;2022-10-16T12:10:31;99706.47;;;23.09;52.18
67740;BME280;54536;50.090;14.420;2022-10-16T12:12:58;99712.84;;;23.22;52.39
67740;BME280;54536;50.090;14.420;2022-10-16T12:15:29;99702.09;;;23.28;52.74
67740;BME280;54536;50.090;14.420;2022-10-16T12:17:56;99703.31;;;23.26;52.91
67740;BME280;54536;50.090;14.420;2022-10-16T12:20:33;99703.28;;;23.39;53.17
67740;BME280;54536;50.090;14.420;2022-10-16T12:23:05;99704.06;;;23.46;53.22
67740;BME280;54536;50.090;14.420;2022-10-16T12:25:38;99703.03;;;23.47;53.34
67740;BME280;54536;50.090;14.420;2022-10-16T12:30:42;99708.16;;;23.62;52.79
67740;BME280;54536;50.090;14.420;2022-10-16T12:33:32;99697.59;;;23.60;52.65
67740;BME280;54536;50.090;14.420;2022-10-16T12:36:03;99702.97;;;23.60;52.70
67740;BME280;54536;50.090;14.420;2022-10-16T12:38:47;99701.09;;;23.68;52.18
67740;BME280;54536;50.090;14.420;2022-10-16T12:41:34;99708.31;;;23.74;52.01
67740;BME280;54536;50.090;14.420;2022-10-16T12:44:01;99696.72;;;23.80;51.76
67740;BME280;54536;50.090;14.420;2022-10-16T12:46:35;99699.03;;;23.70;51.73
67740;BME280;54536;50.090;14.420;2022-10-16T12:51:43;99695.53;;;23.69;51.22
67740;BME280;54536;50.090;14.420;2022-10-16T12:54:25;99695.13;;;23.66;51.28
67740;BME280;54536;50.090;14.420;2022-10-16T12:57:00;99693.03;;;23.68;51.21
67740;BME280;54536;50.090;14.420;2022-10-16T13:27:28;99722.63;;;23.48;52.24
67740;BME280;54536;50.090;14.420;2022-10-16T13:30:12;99724.28;;;23.55;52.27
67740;BME280;54536;50.090;14.420;2022-10-16T13:32:45;99722.03;;;23.52;51.62
67740;BME280;54536;50.090;14.420;2022-10-16T13:35:22;99725.75;;;23.51;52.49
67740;BME280;54536;50.090;14.420;2022-10-16T13:37:51;99731.53;;;23.55;52.15
67740;BME280;54536;50.090;14.420;2022-10-16T13:40:23;99730.53;;;23.43;52.66
67740;BME280;54536;50.090;14.420;2022-10-16T13:42:52;99735.06;;;23.42;52.30
67740;BME280;54536;50.090;14.420;2022-10-16T13:45:24;99737.09;;;23.47;52.56
67740;BME280;54536;50.090;14.420;2022-10-16T13:48:08;99735.69;;;23.37;52.15
67740;BME280;54536;50.090;14.420;2022-10-16T13:50:37;99734.88;;;23.37;52.40
67740;BME280;54536;50.090;14.420;2022-10-16T13:53:13;99737.16;;;23.33;52.28
67740;BME280;54536;50.090;14.420;2022-10-16T13:55:40;99743.56;;;23.32;52.21
67740;BME280;54536;50.090;14.420;2022-10-16T13:58:13;99743.59;;;23.26;52.69
67740;BME280;54536;50.090;14.420;2022-10-16T14:00:54;99744.59;;;23.25;52.58
67740;BME280;54536;50.090;14.420;2022-10-16T14:03:21;99741.50;;;23.21;52.63
67740;BME280;54536;50.090;14.420;2022-10-16T14:05:53;99739.88;;;23.20;52.77
67740;BME280;54536;50.090;14.420;2022-10-16T14:08:22;99741.53;;;23.14;52.64
67740;BME280;54536;50.090;14.420;2022-10-16T14:11:01;99752.91;;;23.10;53.02
67740;BME280;54536;50.090;14.420;2022-10-16T14:16:02;99747.13;;;23.13;52.54
67740;BME280;54536;50.090;14.420;2022-10-16T14:18:31;99747.31;;;23.05;52.62
67740;BME280;54536;50.090;14.420;2022-10-16T14:21:06;99743.22;;;23.02;52.86
67740;BME280;54536;50.090;14.420;2022-10-16T14:23:37;99749.00;;;22.99;53.02
67740;BME280;54536;50.090;14.420;2022-10-16T14:28:37;99748.38;;;23.04;52.98
67740;BME280;54536;50.090;14.420;2022-10-16T14:31:35;99749.19;;;22.98;53.14
67740;BME280;54536;50.090;14.420;2022-10-16T14:34:03;99750.44;;;22.95;53.22
67740;BME280;54536;50.090;14.420;2022-10-16T14:36:33;99750.00;;;22.98;53.19
67740;BME280;54536;50.090;14.420;2022-10-16T14:39:17;99752.91;;;22.97;52.84
67740;BME280;54536;50.090;14.420;2022-10-16T14:41:48;99745.91;;;22.96;53.06
67740;BME280;54536;50.090;14.420;2022-10-16T14:44:26;99740.75;;;22.94;53.43
67740;BME280;54536;50.090;14.420;2022-10-16T14:46:54;99737.41;;;22.92;53.25
67740;BME280;54536;50.090;14.420;2022-10-16T14:49:22;99741.97;;;22.98;53.50
67740;BME280;54536;50.090;14.420;2022-10-16T14:51:49;99746.91;;;23.01;53.11
67740;BME280;54536;50.090;14.420;2022-10-16T14:54:18;99746.72;;;23.03;53.14
67740;BME280;54536;50.090;14.420;2022-10-16T14:56:56;99741.94;;;23.05;53.34
67740;BME280;54536;50.090;14.420;2022-10-16T14:59:42;99747.13;;;23.00;53.63